createdAt,value
2019-04-06T00:00:40.038Z,99.90
2019-04-06T00:03:08.575Z,99.90
2019-04-06T00:05:37.075Z,99.90
2019-04-06T00:08:05.820Z,99.90
2019-04-06T00:10:34.446Z,99.90
2019-04-06T00:13:03.003Z,99.90
2019-04-06T00:15:31.571Z,99.90
2019-04-06T00:18:00.134Z,99.90
2019-04-06T00:20:28.687Z,99.90
2019-04-06T00:22:57.485Z,99.90
2019-04-06T00:25:26.014Z,99.90
2019-04-06T00:27:54.504Z,99.90
2019-04-06T00:30:23.520Z,99.90
2019-04-06T00:33:08.514Z,99.90
2019-04-06T00:35:37.016Z,99.90
2019-04-06T00:38:05.809Z,99.90
2019-04-06T00:40:34.452Z,99.90
2019-04-06T00:43:02.912Z,99.90
2019-04-06T00:45:31.436Z,99.90
2019-04-06T00:47:59.918Z,99.90
2019-04-06T00:50:28.408Z,99.90
2019-04-06T00:52:56.931Z,99.90
2019-04-06T00:55:25.420Z,99.90
2019-04-06T00:57:53.896Z,99.90
2019-04-06T01:00:22.526Z,99.90
2019-04-06T01:02:51.085Z,99.90
2019-04-06T01:05:19.611Z,99.90
2019-04-06T01:07:48.151Z,99.90
2019-04-06T01:10:16.794Z,99.90
2019-04-06T01:12:45.591Z,99.90
2019-04-06T01:15:14.576Z,99.90
2019-04-06T01:17:43.135Z,99.90
2019-04-06T01:20:11.741Z,99.90
2019-04-06T01:22:40.271Z,99.90
2019-04-06T01:25:09.004Z,99.90
2019-04-06T01:27:37.724Z,99.90
2019-04-06T01:30:07.983Z,99.90
2019-04-06T01:32:36.462Z,99.90
2019-04-06T01:35:05.563Z,99.90
2019-04-06T01:37:34.068Z,99.90
2019-04-06T01:40:03.172Z,99.90
2019-04-06T01:42:31.698Z,99.90
2019-04-06T01:45:00.155Z,99.90
2019-04-06T01:47:28.648Z,99.90
2019-04-06T01:49:57.183Z,99.90
2019-04-06T01:52:25.675Z,99.90
2019-04-06T01:54:54.164Z,99.90
2019-04-06T01:57:22.630Z,99.90
2019-04-06T01:59:51.433Z,99.90
2019-04-06T02:02:24.315Z,99.90
2019-04-06T02:04:53.019Z,99.90
2019-04-06T02:07:21.543Z,99.90
2019-04-06T02:09:50.107Z,99.90
2019-04-06T02:12:18.608Z,99.90
2019-04-06T02:14:47.407Z,99.90
2019-04-06T02:17:15.928Z,99.90
2019-04-06T02:19:44.454Z,99.90
2019-04-06T02:22:13.238Z,99.90
2019-04-06T02:24:41.797Z,99.90
2019-04-06T02:27:11.260Z,99.90
2019-04-06T02:29:39.789Z,99.90
2019-04-06T02:32:12.499Z,99.90
2019-04-06T02:34:51.603Z,99.90
2019-04-06T02:37:30.750Z,99.90
2019-04-06T02:40:09.592Z,99.90
2019-04-06T02:42:39.792Z,99.90
2019-04-06T02:45:08.490Z,99.90
2019-04-06T02:47:37.073Z,99.90
2019-04-06T02:50:09.353Z,99.90
2019-04-06T02:52:37.808Z,99.90
2019-04-06T02:55:06.402Z,99.90
2019-04-06T02:57:34.902Z,99.90
2019-04-06T03:00:04.771Z,99.90
2019-04-06T03:02:33.391Z,99.90
2019-04-06T03:05:01.962Z,99.90
2019-04-06T03:07:30.572Z,99.90
2019-04-06T03:09:59.369Z,99.90
2019-04-06T03:12:28.206Z,99.90
2019-04-06T03:14:56.798Z,99.90
2019-04-06T03:17:25.305Z,99.90
2019-04-06T03:19:54.061Z,99.90
2019-04-06T03:22:22.523Z,99.90
2019-04-06T03:24:51.063Z,99.90
2019-04-06T03:27:19.669Z,99.90
2019-04-06T03:29:57.817Z,99.90
2019-04-06T03:32:18.738Z,99.90
2019-04-06T03:34:47.269Z,99.90
2019-04-06T03:37:15.768Z,99.90
2019-04-06T03:39:44.256Z,99.90
2019-04-06T03:42:12.841Z,99.90
2019-04-06T03:44:41.339Z,99.90
2019-04-06T03:47:10.040Z,99.90
2019-04-06T03:49:38.571Z,99.90
2019-04-06T03:52:07.193Z,99.90
2019-04-06T03:54:35.892Z,99.90
2019-04-06T03:57:15.038Z,99.90
2019-04-06T03:59:34.725Z,99.90
2019-04-06T04:02:03.246Z,99.90
2019-04-06T04:04:31.741Z,99.90
2019-04-06T04:07:00.275Z,99.90
2019-04-06T04:09:28.753Z,99.90
2019-04-06T04:11:57.365Z,99.90
2019-04-06T04:14:25.943Z,99.90
2019-04-06T04:16:54.621Z,99.90
2019-04-06T04:19:23.130Z,99.90
2019-04-06T04:21:51.635Z,99.90
2019-04-06T04:24:20.097Z,99.90
2019-04-06T04:26:48.934Z,99.90
2019-04-06T04:29:17.390Z,99.90
2019-04-06T04:31:45.878Z,99.90
2019-04-06T04:34:14.415Z,99.90
2019-04-06T04:36:42.877Z,99.90
2019-04-06T04:39:11.414Z,99.90
2019-04-06T04:41:40.401Z,99.90
2019-04-06T04:44:09.203Z,99.90
2019-04-06T04:46:37.662Z,99.90
2019-04-06T04:49:06.297Z,99.90
2019-04-06T04:51:34.756Z,99.90
2019-04-06T04:54:03.260Z,99.90
2019-04-06T04:56:31.999Z,99.90
2019-04-06T04:59:00.490Z,99.90
2019-04-06T05:01:29.030Z,99.90
2019-04-06T05:03:57.588Z,99.90
2019-04-06T05:06:26.125Z,99.90
2019-04-06T05:08:54.941Z,99.90
2019-04-06T05:11:23.487Z,99.90
2019-04-06T05:13:55.027Z,99.90
2019-04-06T05:16:23.487Z,99.90
2019-04-06T05:18:51.968Z,99.90
2019-04-06T05:21:20.499Z,99.90
2019-04-06T05:23:48.969Z,99.90
2019-04-06T05:26:17.467Z,99.90
2019-04-06T05:28:45.930Z,99.90
2019-04-06T05:31:14.466Z,99.90
2019-04-06T05:33:42.958Z,99.90
2019-04-06T05:36:11.852Z,99.90
2019-04-06T05:38:40.327Z,99.90
2019-04-06T05:41:08.952Z,99.90
2019-04-06T05:43:37.416Z,99.90
2019-04-06T05:46:05.917Z,99.90
2019-04-06T05:48:36.856Z,99.90
2019-04-06T05:51:05.084Z,99.90
2019-04-06T05:53:33.605Z,99.90
2019-04-06T05:56:02.092Z,99.90
2019-04-06T05:58:30.547Z,99.90
2019-04-06T06:00:59.366Z,99.90
2019-04-06T06:03:27.913Z,99.90
2019-04-06T06:05:56.367Z,99.90
2019-04-06T06:08:24.839Z,99.90
2019-04-06T06:10:53.606Z,99.90
2019-04-06T06:13:22.137Z,99.90
2019-04-06T06:15:50.617Z,99.90
2019-04-06T06:18:26.357Z,99.90
2019-04-06T06:20:49.340Z,99.90
2019-04-06T06:23:17.918Z,99.90
2019-04-06T06:25:46.531Z,99.90
2019-04-06T06:28:15.626Z,99.90
2019-04-06T06:30:44.168Z,99.90
2019-04-06T06:33:12.711Z,99.90
2019-04-06T06:35:41.184Z,99.90
2019-04-06T06:38:09.723Z,99.90
2019-04-06T06:40:38.278Z,99.90
2019-04-06T06:43:06.878Z,99.90
2019-04-06T06:45:35.438Z,99.90
2019-04-06T06:48:04.135Z,99.90
2019-04-06T06:50:34.528Z,99.90
2019-04-06T06:53:03.145Z,99.90
2019-04-06T06:55:31.788Z,99.90
2019-04-06T06:58:00.515Z,99.90
2019-04-06T07:00:29.299Z,99.90
2019-04-06T07:02:57.788Z,99.90
2019-04-06T07:05:26.314Z,99.90
2019-04-06T07:07:54.775Z,99.90
2019-04-06T07:10:23.263Z,99.90
2019-04-06T07:12:51.872Z,99.90
2019-04-06T07:15:20.410Z,99.90
2019-04-06T07:17:48.991Z,99.90
2019-04-06T07:20:17.790Z,99.90
2019-04-06T07:22:46.243Z,99.90
2019-04-06T07:25:15.063Z,99.90
2019-04-06T07:27:43.548Z,99.90
2019-04-06T07:30:12.552Z,99.90
2019-04-06T07:32:41.052Z,99.90
2019-04-06T07:35:10.809Z,99.90
2019-04-06T07:37:39.349Z,99.90
2019-04-06T07:40:08.889Z,99.90
2019-04-06T07:42:37.405Z,99.90
2019-04-06T07:45:07.291Z,99.90
2019-04-06T07:47:36.030Z,99.90
2019-04-06T07:50:07.373Z,99.90
2019-04-06T07:52:36.440Z,99.90
2019-04-06T07:55:08.554Z,99.90
2019-04-06T07:57:37.099Z,99.90
2019-04-06T08:00:07.277Z,99.90
2019-04-06T08:02:35.962Z,99.90
2019-04-06T08:05:06.431Z,99.90
2019-04-06T08:07:35.030Z,99.90
2019-04-06T08:10:04.263Z,99.90
2019-04-06T08:12:32.832Z,99.90
2019-04-06T08:15:01.320Z,99.90
2019-04-06T08:17:30.235Z,99.90
2019-04-06T08:19:58.764Z,99.90
2019-04-06T08:22:27.218Z,99.90
2019-04-06T08:24:55.754Z,99.90
2019-04-06T08:27:24.401Z,99.90
2019-04-06T08:29:53.328Z,99.90
2019-04-06T08:32:21.883Z,99.90
2019-04-06T08:34:50.352Z,99.90
2019-04-06T08:37:18.863Z,99.90
2019-04-06T08:39:47.409Z,99.90
2019-04-06T08:42:16.349Z,99.90
2019-04-06T08:44:44.891Z,99.90
2019-04-06T08:47:13.467Z,99.90
2019-04-06T08:49:41.991Z,99.90
2019-04-06T08:52:11.749Z,99.90
2019-04-06T08:54:40.558Z,99.90
2019-04-06T08:57:09.412Z,99.90
2019-04-06T08:59:37.995Z,99.90
2019-04-06T09:02:06.609Z,99.90
2019-04-06T09:04:35.216Z,99.90
2019-04-06T09:07:03.703Z,99.90
2019-04-06T09:09:32.329Z,99.90
2019-04-06T09:12:00.794Z,99.90
2019-04-06T09:14:29.510Z,99.90
2019-04-06T09:16:58.075Z,99.90
2019-04-06T09:19:26.545Z,99.90
2019-04-06T09:21:55.011Z,99.90
2019-04-06T09:24:23.579Z,99.90
2019-04-06T09:26:52.042Z,99.90
2019-04-06T09:29:23.639Z,99.90
2019-04-06T09:31:50.735Z,99.10
2019-04-06T09:34:19.270Z,98.90
2019-04-06T09:36:47.739Z,99.90
2019-04-06T09:39:16.239Z,99.80
2019-04-06T09:41:44.926Z,99.90
2019-04-06T09:44:21.192Z,99.50
2019-04-06T09:47:00.011Z,99.60
2019-04-06T09:49:39.112Z,99.90
2019-04-06T09:52:26.863Z,98.60
2019-04-06T09:55:02.970Z,97.80
2019-04-06T09:57:36.207Z,97.70
2019-04-06T10:00:10.852Z,97.40
2019-04-06T10:02:50.114Z,97.10
2019-04-06T10:05:29.762Z,97.40
2019-04-06T10:08:14.750Z,97.40
2019-04-06T10:11:00.765Z,97.00
2019-04-06T10:13:31.139Z,96.90
2019-04-06T10:16:01.375Z,96.20
2019-04-06T10:18:31.524Z,95.30
2019-04-06T10:21:10.475Z,95.10
2019-04-06T10:23:43.273Z,94.30
2019-04-06T10:26:19.340Z,94.60
2019-04-06T10:28:49.787Z,95.20
2019-04-06T10:31:20.164Z,95.30
2019-04-06T10:34:02.052Z,95.00
2019-04-06T10:36:32.520Z,94.70
2019-04-06T10:39:02.614Z,94.20
2019-04-06T10:41:38.631Z,95.40
2019-04-06T10:44:17.700Z,94.90
2019-04-06T10:46:47.847Z,94.60
2019-04-06T10:49:26.549Z,95.20
2019-04-06T10:51:56.760Z,95.00
2019-04-06T10:54:35.539Z,94.80
2019-04-06T10:57:05.802Z,93.70
2019-04-06T11:00:01.082Z,94.00
2019-04-06T11:02:40.202Z,94.60
2019-04-06T11:05:13.537Z,95.80
2019-04-06T11:07:59.714Z,96.10
2019-04-06T11:10:32.578Z,96.60
2019-04-06T11:13:12.367Z,96.60
2019-04-06T11:15:48.599Z,96.50
2019-04-06T11:18:35.091Z,97.30
2019-04-06T11:21:20.396Z,96.90
2019-04-06T11:23:53.007Z,96.90
2019-04-06T11:26:38.887Z,97.70
2019-04-06T11:29:14.676Z,96.90
2019-04-06T11:31:44.857Z,96.30
2019-04-06T11:34:31.195Z,96.10
2019-04-06T11:37:17.701Z,96.50
2019-04-06T11:39:51.013Z,96.40
2019-04-06T11:42:37.208Z,96.10
2019-04-06T11:45:14.815Z,96.50
2019-04-06T11:48:00.974Z,96.60
2019-04-06T11:50:31.162Z,96.50
2019-04-06T11:53:04.232Z,96.90
2019-04-06T11:55:40.447Z,96.10
2019-04-06T11:58:27.070Z,95.90
2019-04-06T12:00:57.308Z,96.80
2019-04-06T12:03:27.482Z,95.30
2019-04-06T12:06:03.422Z,95.50
2019-04-06T12:08:39.359Z,95.60
2019-04-06T12:11:09.735Z,96.10
2019-04-06T12:13:40.153Z,95.60
2019-04-06T12:16:26.669Z,95.20
2019-04-06T12:19:15.166Z,94.40
2019-04-06T12:21:48.455Z,94.10
2019-04-06T12:24:34.741Z,93.20
2019-04-06T12:27:14.168Z,91.80
2019-04-06T12:29:47.086Z,91.30
2019-04-06T12:32:25.784Z,91.70
2019-04-06T12:34:59.257Z,92.00
2019-04-06T12:37:35.410Z,92.60
2019-04-06T12:40:13.047Z,92.10
2019-04-06T12:42:43.342Z,92.00
2019-04-06T12:45:13.848Z,91.50
2019-04-06T12:47:59.996Z,91.40
2019-04-06T12:50:30.597Z,91.30
2019-04-06T12:53:12.624Z,91.60
2019-04-06T12:55:45.509Z,92.40
2019-04-06T12:58:21.780Z,91.90
2019-04-06T13:00:54.662Z,91.40
2019-04-06T13:03:30.811Z,91.10
2019-04-06T13:06:00.993Z,91.00
2019-04-06T13:08:31.530Z,90.70
2019-04-06T13:11:01.673Z,92.00
2019-04-06T13:13:47.044Z,92.00
2019-04-06T13:16:17.225Z,91.50
2019-04-06T13:18:50.649Z,91.60
2019-04-06T13:21:20.898Z,90.80
2019-04-06T13:24:03.078Z,90.50
2019-04-06T13:26:33.841Z,90.70
2019-04-06T13:29:06.990Z,90.90
2019-04-06T13:31:39.883Z,90.30
2019-04-06T13:34:13.028Z,90.20
2019-04-06T13:36:49.436Z,89.60
2019-04-06T13:39:19.565Z,87.90
2019-04-06T13:42:06.071Z,85.30
2019-04-06T13:44:39.270Z,85.90
2019-04-06T13:47:21.263Z,85.70
2019-04-06T13:50:09.424Z,84.50
2019-04-06T13:52:42.325Z,84.60
2019-04-06T13:55:24.240Z,85.00
2019-04-06T13:58:03.152Z,82.60
2019-04-06T14:00:49.406Z,80.30
2019-04-06T14:03:19.573Z,78.70
2019-04-06T14:05:49.686Z,77.50
2019-04-06T14:08:19.811Z,74.80
2019-04-06T14:10:55.883Z,76.20
2019-04-06T14:13:28.794Z,76.10
2019-04-06T14:15:59.181Z,75.90
2019-04-06T14:18:35.385Z,76.30
2019-04-06T14:21:21.932Z,76.20
2019-04-06T14:23:52.171Z,75.10
2019-04-06T14:26:22.280Z,74.20
2019-04-06T14:28:52.610Z,74.00
2019-04-06T14:31:34.886Z,73.50
2019-04-06T14:34:05.053Z,72.70
2019-04-06T14:36:44.226Z,74.00
2019-04-06T14:39:26.504Z,72.70
2019-04-06T14:42:13.051Z,73.40
2019-04-06T14:44:43.250Z,74.10
2019-04-06T14:47:25.202Z,74.90
2019-04-06T14:50:10.792Z,75.90
2019-04-06T14:52:57.440Z,74.20
2019-04-06T14:55:40.117Z,73.80
2019-04-06T14:58:10.592Z,73.10
2019-04-06T15:00:56.947Z,72.10
2019-04-06T15:03:33.387Z,71.00
2019-04-06T15:06:09.587Z,69.60
2019-04-06T15:08:42.680Z,68.80
2019-04-06T15:11:27.619Z,67.90
2019-04-06T15:14:04.206Z,67.10
2019-04-06T15:16:43.436Z,67.20
2019-04-06T15:19:13.984Z,68.20
2019-04-06T15:21:53.271Z,67.90
2019-04-06T15:24:23.415Z,69.00
2019-04-06T15:27:02.312Z,69.50
2019-04-06T15:29:50.387Z,69.40
2019-04-06T15:32:26.284Z,69.10
2019-04-06T15:34:56.482Z,68.80
2019-04-06T15:37:35.395Z,68.20
2019-04-06T15:40:13.622Z,66.90
2019-04-06T15:43:00.450Z,67.50
2019-04-06T15:45:46.806Z,67.00
2019-04-06T15:48:37.058Z,66.90
2019-04-06T15:51:09.572Z,67.70
2019-04-06T15:53:49.012Z,67.80
2019-04-06T15:56:35.412Z,69.20
2019-04-06T15:59:11.412Z,69.80
2019-04-06T16:02:01.545Z,70.70
2019-04-06T16:04:48.031Z,71.10
2019-04-06T16:07:36.547Z,71.50
2019-04-06T16:10:15.335Z,71.00
2019-04-06T16:12:45.833Z,71.40
2019-04-06T16:15:27.668Z,70.80
2019-04-06T16:17:57.792Z,71.00
2019-04-06T16:20:39.765Z,69.50
2019-04-06T16:23:13.125Z,69.10
2019-04-06T16:25:43.403Z,69.50
2019-04-06T16:28:22.208Z,69.10
2019-04-06T16:30:52.659Z,69.30
2019-04-06T16:33:22.954Z,68.40
2019-04-06T16:35:59.136Z,65.80
2019-04-06T16:38:35.305Z,62.60
2019-04-06T16:41:05.563Z,58.60
2019-04-06T16:43:36.069Z,55.60
2019-04-06T16:46:21.239Z,53.80
2019-04-06T16:49:09.503Z,52.30
2019-04-06T16:51:48.177Z,53.20
2019-04-06T16:54:33.094Z,55.10
2019-04-06T16:57:06.154Z,56.00
2019-04-06T16:59:52.340Z,57.90
2019-04-06T17:02:25.431Z,58.80
2019-04-06T17:04:58.411Z,60.40
2019-04-06T17:07:46.919Z,62.00
2019-04-06T17:10:17.095Z,62.80
2019-04-06T17:12:50.276Z,63.70
2019-04-06T17:15:23.635Z,64.70
2019-04-06T17:18:08.752Z,66.00
2019-04-06T17:20:42.414Z,66.90
2019-04-06T17:23:21.288Z,67.80
2019-04-06T17:25:51.420Z,68.80
2019-04-06T17:28:37.746Z,69.40
2019-04-06T17:31:10.655Z,70.00
2019-04-06T17:33:53.189Z,70.50
2019-04-06T17:36:26.123Z,71.20
2019-04-06T17:39:12.035Z,71.70
2019-04-06T17:41:44.910Z,73.00
2019-04-06T17:44:17.563Z,72.80
2019-04-06T17:46:57.234Z,73.30
2019-04-06T17:49:43.936Z,74.60
2019-04-06T17:52:20.323Z,75.00
2019-04-06T17:55:06.804Z,76.80
2019-04-06T17:57:45.715Z,77.30
2019-04-06T18:00:16.115Z,77.40
2019-04-06T18:02:52.029Z,78.40
2019-04-06T18:05:22.672Z,78.40
2019-04-06T18:07:52.840Z,79.10
2019-04-06T18:10:23.085Z,80.00
2019-04-06T18:12:53.479Z,80.60
2019-04-06T18:15:22.021Z,80.90
2019-04-06T18:17:50.576Z,81.80
2019-04-06T18:20:19.628Z,82.00
2019-04-06T18:22:48.355Z,82.10
2019-04-06T18:25:16.987Z,83.40
2019-04-06T18:27:45.453Z,84.20
2019-04-06T18:30:14.616Z,83.30
2019-04-06T18:32:44.916Z,83.70
2019-04-06T18:35:13.466Z,84.60
2019-04-06T18:37:43.595Z,84.70
2019-04-06T18:40:14.363Z,85.20
2019-04-06T18:42:42.830Z,86.30
2019-04-06T18:45:11.891Z,86.50
2019-04-06T18:47:40.644Z,87.40
2019-04-06T18:50:09.448Z,87.90
2019-04-06T18:52:38.418Z,88.30
2019-04-06T18:55:07.504Z,89.30
2019-04-06T18:57:35.976Z,90.30
2019-04-06T19:00:07.592Z,91.20
2019-04-06T19:02:36.147Z,92.40
2019-04-06T19:05:07.805Z,93.20
2019-04-06T19:07:36.294Z,93.40
2019-04-06T19:10:08.339Z,93.70
2019-04-06T19:12:36.851Z,93.90
2019-04-06T19:15:08.184Z,94.40
2019-04-06T19:17:37.254Z,94.90
2019-04-06T19:20:07.955Z,95.30
2019-04-06T19:22:36.777Z,95.80
2019-04-06T19:25:06.975Z,96.30
2019-04-06T19:27:35.577Z,96.50
2019-04-06T19:30:07.117Z,96.70
2019-04-06T19:32:35.675Z,97.10
2019-04-06T19:35:06.883Z,97.70
2019-04-06T19:37:35.519Z,98.20
2019-04-06T19:40:06.298Z,98.80
2019-04-06T19:42:35.186Z,99.30
2019-04-06T19:45:08.339Z,99.80
2019-04-06T19:47:37.039Z,99.90
2019-04-06T19:50:07.641Z,99.90
2019-04-06T19:52:36.117Z,99.90
2019-04-06T19:55:06.238Z,99.90
2019-04-06T19:57:35.228Z,99.90
2019-04-06T20:00:06.793Z,99.90
2019-04-06T20:02:35.352Z,99.90
2019-04-06T20:05:07.544Z,99.90
2019-04-06T20:07:36.574Z,99.90
2019-04-06T20:10:08.433Z,99.90
2019-04-06T20:12:37.650Z,99.90
2019-04-06T20:15:07.502Z,99.90
2019-04-06T20:17:36.332Z,99.90
2019-04-06T20:20:06.632Z,99.90
2019-04-06T20:22:36.517Z,99.90
2019-04-06T20:25:07.138Z,99.90
2019-04-06T20:27:35.679Z,99.90
2019-04-06T20:30:07.784Z,99.90
2019-04-06T20:32:36.400Z,99.90
2019-04-06T20:35:07.575Z,99.90
2019-04-06T20:37:36.192Z,99.90
2019-04-06T20:40:08.607Z,99.90
2019-04-06T20:42:37.167Z,99.90
2019-04-06T20:45:08.098Z,99.90
2019-04-06T20:47:37.041Z,99.90
2019-04-06T20:50:08.076Z,99.90
2019-04-06T20:52:37.070Z,99.90
2019-04-06T20:55:06.769Z,99.90
2019-04-06T20:57:35.323Z,99.90
2019-04-06T21:00:08.177Z,99.90
2019-04-06T21:02:37.171Z,99.90
2019-04-06T21:05:07.254Z,99.90
2019-04-06T21:07:35.886Z,99.90
2019-04-06T21:10:07.114Z,99.90
2019-04-06T21:12:35.647Z,99.90
2019-04-06T21:15:17.838Z,99.90
2019-04-06T21:17:37.059Z,99.90
2019-04-06T21:20:07.397Z,99.90
2019-04-06T21:22:36.254Z,99.90
2019-04-06T21:25:05.997Z,99.90
2019-04-06T21:27:35.152Z,99.90
2019-04-06T21:30:06.378Z,99.90
2019-04-06T21:32:35.055Z,99.90
2019-04-06T21:35:05.537Z,99.90
2019-04-06T21:37:34.535Z,99.90
2019-04-06T21:40:03.858Z,99.90
2019-04-06T21:42:32.995Z,99.90
2019-04-06T21:45:01.590Z,99.90
2019-04-06T21:47:30.773Z,99.90
2019-04-06T21:49:59.300Z,99.90
2019-04-06T21:52:27.763Z,99.90
2019-04-06T21:54:56.857Z,99.90
2019-04-06T21:57:25.395Z,99.90
2019-04-06T21:59:53.857Z,99.90
2019-04-06T22:02:22.882Z,99.90
2019-04-06T22:04:51.439Z,99.90
2019-04-06T22:07:19.968Z,99.90
2019-04-06T22:09:49.134Z,99.90
2019-04-06T22:12:17.685Z,99.90
2019-04-06T22:14:46.196Z,99.90
2019-04-06T22:17:15.240Z,99.90
2019-04-06T22:19:44.008Z,99.90
2019-04-06T22:22:12.547Z,99.90
2019-04-06T22:24:41.802Z,99.90
2019-04-06T22:27:10.864Z,99.90
2019-04-06T22:29:39.770Z,99.90
2019-04-06T22:32:08.729Z,99.90
2019-04-06T22:34:40.173Z,99.90
2019-04-06T22:37:07.539Z,99.90
2019-04-06T22:39:36.454Z,99.90
2019-04-06T22:42:05.119Z,99.90
2019-04-06T22:44:33.584Z,99.90
2019-04-06T22:47:02.429Z,99.90
2019-04-06T22:49:30.915Z,99.90
2019-04-06T22:51:59.465Z,99.90
2019-04-06T22:54:28.008Z,99.90
2019-04-06T22:56:56.725Z,99.90
2019-04-06T22:59:25.666Z,99.90
2019-04-06T23:01:54.981Z,99.90
2019-04-06T23:04:31.275Z,99.90
2019-04-06T23:07:04.324Z,99.90
2019-04-06T23:09:32.790Z,99.90
2019-04-06T23:12:01.837Z,99.90
2019-04-06T23:14:30.379Z,99.90
2019-04-06T23:16:59.780Z,99.90
2019-04-06T23:19:28.627Z,99.90
2019-04-06T23:21:57.561Z,99.90
2019-04-06T23:24:27.146Z,99.90
2019-04-06T23:26:55.729Z,99.90
2019-04-06T23:29:24.293Z,99.90
2019-04-06T23:31:53.124Z,99.90
2019-04-06T23:34:21.675Z,99.90
2019-04-06T23:36:50.183Z,99.90
2019-04-06T23:39:18.726Z,99.90
2019-04-06T23:41:47.269Z,99.90
2019-04-06T23:44:15.754Z,99.90
2019-04-06T23:46:44.218Z,99.90
2019-04-06T23:49:13.292Z,99.90
2019-04-06T23:51:42.577Z,99.90
2019-04-06T23:54:11.422Z,99.90
2019-04-06T23:56:40.565Z,99.90
2019-04-06T23:59:09.651Z,99.90
